Time;durP1;ratioP1;P1;durP2;ratioP2;P2;SDS_P1;SDS_P2;PMS_P1;PMS_P2;Temp;Humidity;BMP_temperature;BMP_pressure;BME280_temperature;BME280_humidity;BME280_pressure;Samples;Min_cycle;Max_cycle;Signal;HPM_P1;HPM_P2
2023/05/30 00:00:00;;;;;;;7.63;3.53;;;;;;;18.43;45.25;100118.31;1087658;54;20034;-84
2023/05/30 00:01:01;;;;;;;6.95;3.10;;;;;;;18.42;45.68;100111.25;1087715;54;20050;-84
2023/05/30 00:02:05;;;;;;;5.55;2.97;;;;;;;18.39;45.83;100115.19;1087491;46;20036;-84
2023/05/30 00:03:06;;;;;;;6.13;3.22;;;;;;;18.39;45.41;100120.59;1088087;39;20328;-84
2023/05/30 00:04:09;;;;;;;4.70;3.10;;;;;;;18.38;45.54;100117.03;1087325;47;20041;-84
2023/05/30 00:05:12;;;;;;;5.95;2.88;;;;;;;18.49;45.26;100117.53;1087306;47;20022;-83
2023/05/30 00:06:16;;;;;;;5.80;3.13;;;;;;;18.55;45.25;100128.44;1087468;47;20034;-84
2023/05/30 00:07:18;;;;;;;5.43;2.75;;;;;;;18.56;45.17;100123.88;1087498;54;20026;-84
2023/05/30 00:08:26;;;;;;;6.00;3.10;;;;;;;18.45;45.68;100127.91;1087648;54;20089;-84
2023/05/30 00:09:27;;;;;;;6.13;3.28;;;;;;;18.37;45.60;100130.75;1087600;54;20034;-83
2023/05/30 00:10:31;;;;;;;7.25;3.20;;;;;;;18.34;45.71;100131.13;1087312;54;20148;-82
2023/05/30 00:11:32;;;;;;;6.13;3.20;;;;;;;18.42;45.81;100122.88;1087335;54;20058;-83
2023/05/30 00:12:36;;;;;;;6.25;2.75;;;;;;;18.44;45.43;100130.84;1087683;54;20034;-84
2023/05/30 00:13:37;;;;;;;4.70;2.50;;;;;;;18.52;45.41;100127.97;1087357;47;20030;-82
2023/05/30 00:14:41;;;;;;;5.95;2.90;;;;;;;18.59;45.04;100119.94;1087339;54;20031;-85
2023/05/30 00:15:44;;;;;;;5.55;3.05;;;;;;;18.65;44.81;100122.69;1087631;54;20111;-84
2023/05/30 00:16:48;;;;;;;5.43;2.65;;;;;;;18.44;45.53;100123.53;1087294;47;20038;-84
2023/05/30 00:17:52;;;;;;;6.38;3.22;;;;;;;18.40;45.81;100135.78;1087416;54;20034;-84
2023/05/30 00:18:56;;;;;;;8.32;3.45;;;;;;;18.27;45.81;100135.66;1087564;54;20042;-84
2023/05/30 00:19:57;;;;;;;6.25;3.38;;;;;;;18.30;45.89;100141.53;1087413;46;20050;-86
2023/05/30 00:21:02;;;;;;;4.95;2.85;;;;;;;18.38;45.71;100135.97;1087289;47;20035;-83
2023/05/30 00:22:05;;;;;;;6.63;3.20;;;;;;;18.45;45.62;100138.75;1087414;54;20037;-84
2023/05/30 00:23:08;;;;;;;6.50;3.00;;;;;;;18.26;46.17;100139.38;1088045;46;20057;-84
2023/05/30 00:24:13;;;;;;;7.55;3.35;;;;;;;18.30;45.86;100143.41;1087595;54;20042;-86
2023/05/30 00:25:20;;;;;;;5.10;2.80;;;;;;;18.35;45.86;100149.06;1087363;47;20038;-83
2023/05/30 00:26:21;;;;;;;5.65;2.80;;;;;;;18.42;45.54;100144.53;1087249;47;20026;-84
2023/05/30 00:27:29;;;;;;;5.40;2.53;;;;;;;18.37;45.71;100145.13;1087277;47;20615;-85
2023/05/30 00:28:30;;;;;;;6.22;3.30;;;;;;;18.36;46.06;100145.31;1087348;54;20057;-85
2023/05/30 00:29:34;;;;;;;5.13;2.60;;;;;;;18.40;45.86;100141.22;1087159;47;20034;-85
2023/05/30 00:30:36;;;;;;;6.72;3.05;;;;;;;18.33;45.76;100151.09;1087266;54;20035;-85
2023/05/30 00:31:39;;;;;;;5.57;3.38;;;;;;;18.16;46.69;100151.38;1087464;54;20038;-82
2023/05/30 00:32:41;;;;;;;7.75;3.30;;;;;;;18.16;46.48;100151.38;1087588;54;20030;-84
2023/05/30 00:33:44;;;;;;;5.82;3.05;;;;;;;18.17;46.56;100152.22;1087639;54;20035;-84
2023/05/30 00:34:45;;;;;;;5.72;3.00;;;;;;;18.16;46.32;100145.97;1087481;54;20030;-84
2023/05/30 00:35:50;;;;;;;6.07;3.17;;;;;;;18.16;46.33;100145.97;1087179;54;20030;-83
2023/05/30 00:36:51;;;;;;;8.68;3.50;;;;;;;17.92;47.38;100149.81;1087248;47;20026;-84
2023/05/30 00:37:54;;;;;;;6.57;3.05;;;;;;;17.95;47.30;100156.75;1087277;47;20030;-83
2023/05/30 00:38:56;;;;;;;6.28;3.28;;;;;;;17.94;47.13;100155.88;1087257;47;20026;-84
2023/05/30 00:40:02;;;;;;;5.43;2.95;;;;;;;17.84;47.81;100153.50;1087222;54;20031;-84
2023/05/30 00:41:04;;;;;;;6.30;3.25;;;;;;;17.84;47.71;100148.09;1087350;54;20034;-85
2023/05/30 00:42:09;;;;;;;6.15;3.03;;;;;;;17.82;47.72;100150.13;1087599;54;20034;-86
2023/05/30 00:43:10;;;;;;;5.95;3.45;;;;;;;17.86;47.45;100143.31;1087289;47;20086;-84
2023/05/30 00:44:14;;;;;;;7.95;3.05;;;;;;;17.69;47.90;100158.06;1087252;47;20031;-84
2023/05/30 00:45:15;;;;;;;5.57;3.05;;;;;;;17.73;47.94;100149.41;1087370;47;20022;-84
2023/05/30 00:46:19;;;;;;;7.45;3.03;;;;;;;17.75;48.01;100151.94;1087293;47;20048;-85
2023/05/30 00:47:20;;;;;;;6.07;3.35;;;;;;;17.71;47.94;100150.63;1088892;39;20315;-86
2023/05/30 00:48:25;;;;;;;5.88;3.17;;;;;;;17.70;48.18;100157.06;1087349;47;20055;-83
2023/05/30 00:49:27;;;;;;;6.15;3.15;;;;;;;17.72;47.85;100155.00;1087285;47;20027;-83
2023/05/30 00:50:32;;;;;;;5.88;3.17;;;;;;;17.73;47.74;100148.56;1087450;54;20098;-84
2023/05/30 00:51:33;;;;;;;5.85;3.30;;;;;;;17.60;48.30;100154.66;1087519;54;20053;-84
2023/05/30 00:52:38;;;;;;;7.30;3.50;;;;;;;17.71;48.23;100151.44;1087386;47;20054;-83
2023/05/30 00:53:40;;;;;;;5.85;3.10;;;;;;;17.66;48.48;100155.78;1087204;47;20143;-83
2023/05/30 00:54:48;;;;;;;5.85;3.08;;;;;;;17.62;48.25;100161.53;1087333;54;20046;-86
2023/05/30 00:55:52;;;;;;;5.65;3.03;;;;;;;17.66;48.21;100151.19;1087586;54;20038;-83
2023/05/30 00:56:59;;;;;;;7.03;2.67;;;;;;;17.74;48.21;100152.97;1087257;46;20050;-83
2023/05/30 00:58:01;;;;;;;7.78;3.83;;;;;;;17.53;48.58;100141.06;1087350;54;20038;-83
2023/05/30 00:59:05;;;;;;;6.53;3.50;;;;;;;17.48;48.77;100148.03;1087492;54;20038;-85
2023/05/30 01:00:07;;;;;;;6.03;2.95;;;;;;;17.45;48.88;100143.88;1087147;47;20031;-84
2023/05/30 01:01:13;;;;;;;6.35;3.55;;;;;;;17.49;48.96;100155.94;1087295;54;20065;-83
2023/05/30 01:02:16;;;;;;;6.55;3.45;;;;;;;17.51;48.66;100145.81;1087613;54;20034;-83
2023/05/30 01:03:22;;;;;;;5.88;3.40;;;;;;;17.43;48.90;100143.19;1087546;54;20086;-81
2023/05/30 01:04:24;;;;;;;5.30;2.78;;;;;;;17.40;49.10;100146.28;1091273;39;20607;-85
2023/05/30 01:05:28;;;;;;;5.65;3.10;;;;;;;17.52;48.73;100147.47;1087280;54;20038;-84
2023/05/30 01:06:30;;;;;;;5.97;3.20;;;;;;;17.66;48.05;100144.97;1087559;54;20030;-82
2023/05/30 01:07:34;;;;;;;6.50;2.80;;;;;;;17.59;48.72;100143.00;1087249;47;20030;-84
2023/05/30 01:08:36;;;;;;;6.80;3.30;;;;;;;17.70;48.11;100146.25;1087293;47;20029;-84
2023/05/30 01:09:40;;;;;;;4.40;2.33;;;;;;;17.68;48.45;100145.59;1087150;47;20034;-83
2023/05/30 01:10:41;;;;;;;6.25;2.88;;;;;;;17.64;48.43;100149.72;1087239;47;20102;-82
2023/05/30 01:12:02;;;;;;;6.20;3.25;;;;;;;17.54;48.89;100140.03;1087208;47;20022;-85
2023/05/30 01:13:16;;;;;;;7.32;3.13;;;;;;;17.50;48.97;100146.81;1087295;47;20022;-83
2023/05/30 01:14:28;;;;;;;5.63;2.83;;;;;;;17.59;48.44;100143.00;1087230;47;20038;-83
2023/05/30 01:15:33;;;;;;;7.30;3.00;;;;;;;17.51;48.79;100145.81;1087279;47;20042;-83
2023/05/30 01:16:44;;;;;;;6.90;2.90;;;;;;;17.54;48.82;100142.72;1087779;39;20383;-85
2023/05/30 01:18:01;;;;;;;5.55;2.75;;;;;;;17.64;48.23;100152.41;1087203;47;20066;-83
2023/05/30 01:19:23;;;;;;;5.47;2.63;;;;;;;17.46;48.82;100137.44;1087313;47;20051;-83
2023/05/30 01:20:26;;;;;;;8.70;3.17;;;;;;;17.43;48.96;100149.44;1087235;47;20029;-84
2023/05/30 01:21:36;;;;;;;6.20;3.40;;;;;;;17.23;49.48;100146.47;1087713;39;20321;-83
2023/05/30 01:23:03;;;;;;;7.50;3.33;;;;;;;17.23;49.47;100146.47;1087333;47;20033;-84
2023/05/30 01:24:17;;;;;;;5.68;2.97;;;;;;;17.15;49.63;100149.25;1087215;47;20030;-83
2023/05/30 01:25:29;;;;;;;5.50;2.85;;;;;;;17.17;49.86;100135.56;1087248;54;20066;-84
2023/05/30 01:26:46;;;;;;;6.53;3.28;;;;;;;17.20;49.44;100138.72;1087299;47;20041;-83
2023/05/30 01:28:21;;;;;;;6.35;3.30;;;;;;;17.09;50.16;100140.03;1087221;47;20038;-81
2023/05/30 01:29:24;;;;;;;7.13;3.15;;;;;;;17.11;49.73;100139.84;1087001;47;20036;-84
2023/05/30 01:30:30;;;;;;;6.40;3.30;;;;;;;17.25;49.39;100138.16;1087488;54;20103;-85
2023/05/30 01:31:35;;;;;;;5.70;2.58;;;;;;;17.28;49.39;100133.25;1087326;54;20034;-81
2023/05/30 01:32:37;;;;;;;6.72;3.28;;;;;;;17.20;49.70;100137.91;1087580;54;20058;-83
2023/05/30 01:33:42;;;;;;;7.53;3.45;;;;;;;17.14;49.93;100134.06;1087354;47;20845;-84
2023/05/30 01:34:43;;;;;;;8.55;3.40;;;;;;;17.26;49.50;100135.28;1087395;46;20049;-84
2023/05/30 01:35:47;;;;;;;6.63;2.88;;;;;;;17.30;49.43;100144.69;1087304;54;20035;-83
2023/05/30 01:36:48;;;;;;;5.80;3.17;;;;;;;17.26;49.23;100135.28;1087331;47;20023;-85
2023/05/30 01:37:52;;;;;;;5.72;3.15;;;;;;;17.29;49.17;100140.31;1087270;54;20034;-84
2023/05/30 01:38:53;;;;;;;6.35;2.97;;;;;;;17.33;49.39;100132.69;1087733;54;20026;-84
2023/05/30 01:39:57;;;;;;;6.05;3.10;;;;;;;17.22;49.33;100142.09;1087237;47;20042;-83
2023/05/30 01:41:00;;;;;;;5.43;2.72;;;;;;;17.33;49.16;100131.84;1087179;47;20027;-83
2023/05/30 01:42:17;;;;;;;5.70;2.92;;;;;;;17.38;49.23;100134.84;1087252;46;20030;-83
2023/05/30 01:43:32;;;;;;;5.57;3.17;;;;;;;17.26;49.73;100135.28;1087324;47;20022;-84
2023/05/30 01:44:43;;;;;;;6.65;3.08;;;;;;;17.27;49.35;100126.19;1087262;54;20039;-85
2023/05/30 01:45:52;;;;;;;8.60;3.15;;;;;;;17.18;49.51;100129.13;1087290;47;20027;-84
2023/05/30 01:47:04;;;;;;;6.15;3.05;;;;;;;17.13;49.98;100133.25;1087407;47;20061;-86
2023/05/30 01:48:13;;;;;;;6.20;3.40;;;;;;;17.23;49.33;100130.25;1087477;54;20061;-82
2023/05/30 01:49:24;;;;;;;5.72;2.90;;;;;;;17.26;49.31;100129.91;1087138;47;20027;-82
2023/05/30 01:50:32;;;;;;;5.20;3.25;;;;;;;17.15;49.82;100127.66;1087245;47;20031;-84
2023/05/30 01:51:42;;;;;;;7.35;3.67;;;;;;;16.98;50.35;100135.09;1087270;54;20061;-85
2023/05/30 01:52:50;;;;;;;8.30;3.33;;;;;;;17.07;50.29;100135.84;1087492;54;20038;-84
2023/05/30 01:54:00;;;;;;;6.95;3.42;;;;;;;17.11;49.84;100131.75;1087318;47;20030;-84
2023/05/30 01:55:13;;;;;;;7.47;2.80;;;;;;;17.15;49.57;100127.66;1087244;47;20075;-83
2023/05/30 01:56:42;;;;;;;4.15;2.53;;;;;;;17.12;49.81;100130.72;1087358;46;20027;-85
2023/05/30 01:57:48;;;;;;;6.80;3.00;;;;;;;17.12;49.71;100134.28;1087250;46;20034;-86
2023/05/30 01:58:56;;;;;;;7.10;2.90;;;;;;;17.13;50.06;100132.41;1087733;46;20106;-86
2023/05/30 01:59:59;;;;;;;6.78;3.08;;;;;;;17.04;49.78;100136.22;1087684;46;20026;-85
2023/05/30 02:01:04;;;;;;;6.53;2.97;;;;;;;17.11;49.62;100139.84;1087866;46;20062;-84
2023/05/30 02:02:07;;;;;;;6.55;2.83;;;;;;;17.19;49.64;100142.47;1087829;54;20026;-86
2023/05/30 02:03:12;;;;;;;7.13;3.63;;;;;;;17.17;49.39;100141.81;1087688;47;20030;-85
2023/05/30 02:04:14;;;;;;;7.07;3.08;;;;;;;17.02;50.09;100141.81;1087721;47;20026;-83
2023/05/30 02:05:17;;;;;;;9.73;3.35;;;;;;;16.94;50.12;100150.00;1087552;47;20122;-85
2023/05/30 02:06:18;;;;;;;6.35;3.35;;;;;;;16.99;50.30;100148.41;1087281;47;20027;-85
2023/05/30 02:07:25;;;;;;;5.13;2.95;;;;;;;17.08;49.97;100141.06;1087222;47;20030;-86
2023/05/30 02:08:26;;;;;;;7.18;3.35;;;;;;;17.09;49.99;100148.13;1087457;47;20026;-85
2023/05/30 02:09:30;;;;;;;5.72;3.28;;;;;;;17.12;49.87;100150.47;1087700;47;20021;-88
2023/05/30 02:10:32;;;;;;;5.90;2.88;;;;;;;17.20;49.32;100149.53;1087618;54;20031;-85
2023/05/30 02:11:35;;;;;;;4.45;2.40;;;;;;;17.22;49.33;100143.97;1087590;47;20031;-85
2023/05/30 02:12:36;;;;;;;4.63;2.47;;;;;;;17.27;49.46;100146.94;1087540;47;20023;-85
2023/05/30 02:13:40;;;;;;;6.30;2.38;;;;;;;17.27;49.38;100142.38;1087702;54;20037;-87
2023/05/30 02:14:44;;;;;;;8.30;3.10;;;;;;;17.15;49.78;100146.56;1087381;47;20038;-86
2023/05/30 02:15:48;;;;;;;5.40;2.88;;;;;;;17.20;49.71;100152.22;1087510;47;20091;-84
2023/05/30 02:16:49;;;;;;;4.85;2.80;;;;;;;16.98;50.11;100154.84;1087764;47;20023;-84
2023/05/30 02:17:55;;;;;;;6.97;3.35;;;;;;;17.00;50.11;100152.78;1087653;47;20049;-86
2023/05/30 02:18:56;;;;;;;6.10;3.03;;;;;;;16.95;50.33;100154.38;1087635;47;20026;-85
2023/05/30 02:20:00;;;;;;;7.97;2.70;;;;;;;16.88;50.34;100159.63;1087488;47;20034;-83
2023/05/30 02:21:02;;;;;;;7.05;3.13;;;;;;;16.82;50.51;100161.19;1087539;47;20046;-84
2023/05/30 02:22:06;;;;;;;6.35;2.97;;;;;;;16.89;50.63;100165.84;1087537;47;20059;-84
2023/05/30 02:23:07;;;;;;;5.72;3.00;;;;;;;16.73;50.75;100156.91;1087463;47;20030;-85
2023/05/30 02:24:12;;;;;;;9.32;4.07;;;;;;;16.73;51.10;100166.84;1087694;54;20065;-83
2023/05/30 02:25:13;;;;;;;7.57;3.40;;;;;;;16.80;50.78;100157.00;1087478;47;20026;-84
2023/05/30 02:26:17;;;;;;;7.78;3.30;;;;;;;16.72;50.98;100160.63;1087403;47;20038;-84
2023/05/30 02:27:20;;;;;;;5.53;2.83;;;;;;;16.71;51.21;100163.50;1087439;47;20026;-85
2023/05/30 02:28:24;;;;;;;6.18;3.17;;;;;;;16.75;50.89;100154.88;1087289;47;20034;-85
2023/05/30 02:29:25;;;;;;;5.95;3.28;;;;;;;16.69;50.91;100159.13;1087342;47;20023;-86
2023/05/30 02:30:31;;;;;;;6.63;3.10;;;;;;;16.70;50.94;100157.25;1087479;47;20042;-85
2023/05/30 02:31:33;;;;;;;8.38;2.60;;;;;;;16.55;51.21;100159.91;1087498;47;20050;-85
2023/05/30 02:32:36;;;;;;;6.32;3.60;;;;;;;16.52;51.61;100165.69;1087433;47;20498;-84
2023/05/30 02:33:37;;;;;;;6.95;3.10;;;;;;;16.50;51.51;100163.16;1087403;47;20046;-85
2023/05/30 02:34:41;;;;;;;6.05;3.63;;;;;;;16.45;51.67;100160.16;1087436;47;20030;-85
2023/05/30 02:35:42;;;;;;;6.90;3.13;;;;;;;16.35;52.01;100167.66;1087382;47;20033;-84
2023/05/30 02:36:46;;;;;;;9.45;3.53;;;;;;;16.36;52.17;100167.47;1087400;47;20026;-86
2023/05/30 02:37:47;;;;;;;5.88;3.20;;;;;;;16.45;51.59;100162.00;1087129;47;20026;-85
2023/05/30 02:38:51;;;;;;;7.18;3.05;;;;;;;16.42;52.08;100171.31;1087320;54;20054;-84
2023/05/30 02:39:53;;;;;;;7.20;3.55;;;;;;;16.39;52.02;100174.34;1087233;46;20037;-84
2023/05/30 02:40:56;;;;;;;6.72;3.40;;;;;;;16.28;51.99;100170.22;1087606;47;20055;-84
2023/05/30 02:41:58;;;;;;;6.75;3.22;;;;;;;16.34;51.98;100169.50;1087252;47;20031;-85
2023/05/30 02:43:02;;;;;;;8.15;3.17;;;;;;;16.31;51.92;100164.50;1087529;47;20067;-85
2023/05/30 02:44:04;;;;;;;8.40;3.15;;;;;;;16.20;52.57;100167.59;1087545;47;20031;-84
2023/05/30 02:45:09;;;;;;;5.95;3.17;;;;;;;16.21;52.16;100164.69;1087478;47;20027;-85
2023/05/30 02:46:16;;;;;;;6.28;2.97;;;;;;;16.16;52.61;100166.25;1087330;47;20029;-84
2023/05/30 02:47:20;;;;;;;7.63;3.35;;;;;;;16.25;52.35;100164.34;1087516;47;20030;-84
2023/05/30 02:48:21;;;;;;;7.15;3.20;;;;;;;16.17;52.61;100159.84;1087454;47;20038;-84
2023/05/30 02:49:25;;;;;;;7.03;3.30;;;;;;;16.19;52.44;100160.50;1087404;54;20038;-84
2023/05/30 02:50:28;;;;;;;7.35;3.50;;;;;;;16.20;52.13;100154.09;1087416;47;20526;-85
2023/05/30 02:51:32;;;;;;;6.88;3.20;;;;;;;16.26;52.13;100164.16;1087272;47;20031;-85
2023/05/30 02:52:34;;;;;;;6.35;3.42;;;;;;;16.27;52.09;100163.16;1087524;46;20011;-85
2023/05/30 02:53:38;;;;;;;6.63;3.42;;;;;;;16.28;51.98;100167.53;1087495;47;20061;-86
2023/05/30 02:54:40;;;;;;;7.95;3.03;;;;;;;16.26;52.22;100160.66;1087278;47;20022;-84
2023/05/30 02:56:04;;;;;;;5.90;3.17;;;;;;;16.20;52.19;100159.50;1087399;47;20030;-86
2023/05/30 02:57:11;;;;;;;5.95;3.33;;;;;;;16.18;52.48;100161.53;1087638;54;20027;-86
2023/05/30 02:58:33;;;;;;;7.33;3.67;;;;;;;16.10;52.84;100161.59;1092811;39;20353;-84
2023/05/30 02:59:41;;;;;;;5.50;2.95;;;;;;;16.19;52.33;100155.97;1087639;47;20279;-86
2023/05/30 03:00:48;;;;;;;6.90;3.13;;;;;;;16.11;52.87;100165.97;1087388;47;20030;-85
2023/05/30 03:01:57;;;;;;;11.18;3.45;;;;;;;16.09;52.67;100158.06;1087423;47;20098;-85
2023/05/30 03:03:00;;;;;;;5.82;3.13;;;;;;;16.03;52.85;100162.31;1087490;47;20062;-84
2023/05/30 03:04:02;;;;;;;7.03;2.92;;;;;;;16.05;52.99;100162.97;1087482;47;20037;-84
2023/05/30 03:05:12;;;;;;;8.48;3.35;;;;;;;16.05;53.01;100165.69;1087355;47;20082;-84
2023/05/30 03:06:14;;;;;;;8.00;3.08;;;;;;;16.04;52.81;100168.53;1087488;47;20103;-84
2023/05/30 03:07:25;;;;;;;7.25;3.67;;;;;;;15.99;52.90;100169.06;1087418;47;20026;-86
2023/05/30 03:08:28;;;;;;;7.32;2.95;;;;;;;15.96;53.12;100166.75;1087621;47;20034;-83
2023/05/30 03:09:33;;;;;;;5.97;2.83;;;;;;;15.85;53.46;100172.53;1087633;47;20026;-85
2023/05/30 03:10:34;;;;;;;6.70;3.38;;;;;;;15.89;53.49;100169.28;1087815;47;20022;-86
2023/05/30 03:11:38;;;;;;;6.53;3.45;;;;;;;15.96;53.13;100165.88;1087566;47;20030;-84
2023/05/30 03:12:43;;;;;;;7.60;3.38;;;;;;;15.89;53.16;100172.00;1087466;47;20050;-84
2023/05/30 03:13:47;;;;;;;7.82;2.78;;;;;;;15.96;53.20;100165.88;1089465;39;20329;-84
2023/05/30 03:14:51;;;;;;;6.82;3.25;;;;;;;15.90;53.32;100172.81;1087324;47;20071;-83
2023/05/30 03:15:52;;;;;;;6.45;3.17;;;;;;;15.96;53.35;100166.75;1087565;54;20030;-85
2023/05/30 03:16:59;;;;;;;7.05;3.35;;;;;;;15.87;53.32;100170.50;1087575;47;20053;-86
2023/05/30 03:18:00;;;;;;;7.63;3.17;;;;;;;15.79;53.54;100170.47;1087492;47;20051;-84
2023/05/30 03:19:04;;;;;;;7.82;3.88;;;;;;;15.71;53.96;100177.59;1087441;47;20049;-83
2023/05/30 03:20:07;;;;;;;8.23;3.05;;;;;;;15.80;53.65;100167.63;1087660;47;20038;-84
2023/05/30 03:21:11;;;;;;;5.53;3.03;;;;;;;15.74;53.74;100185.34;1087428;47;20030;-84
2023/05/30 03:22:12;;;;;;;5.88;3.25;;;;;;;15.72;54.04;100175.75;1087600;47;20027;-87
2023/05/30 03:23:16;;;;;;;6.97;3.60;;;;;;;15.70;53.90;100177.78;1087396;47;20031;-83
2023/05/30 03:24:18;;;;;;;7.57;4.20;;;;;;;15.63;54.03;100183.03;1087814;47;20074;-83
2023/05/30 03:25:22;;;;;;;7.38;3.20;;;;;;;15.67;53.90;100172.72;1092179;39;20315;-85
2023/05/30 03:26:25;;;;;;;6.78;2.85;;;;;;;15.57;54.05;100181.88;1087971;47;20026;-83
2023/05/30 03:27:29;;;;;;;6.00;3.28;;;;;;;15.53;54.39;100179.69;1088141;54;20034;-84
2023/05/30 03:28:30;;;;;;;7.50;3.15;;;;;;;15.67;54.23;100181.66;1087962;54;20030;-83
2023/05/30 03:30:03;;;;;;;6.05;2.60;;;;;;;15.72;53.96;100184.66;1087956;46;20054;-83
2023/05/30 03:31:05;;;;;;;7.18;2.75;;;;;;;15.65;54.04;100186.38;1087833;46;20082;-84
2023/05/30 03:32:12;;;;;;;7.57;3.20;;;;;;;15.61;54.12;100185.03;1087875;47;20030;-84
2023/05/30 03:33:14;;;;;;;8.00;3.30;;;;;;;15.59;54.03;100187.06;1088232;39;20253;-84
2023/05/30 03:34:17;;;;;;;6.75;3.65;;;;;;;15.67;53.98;100184.38;1087809;54;20038;-85
2023/05/30 03:35:20;;;;;;;5.60;3.20;;;;;;;15.74;53.56;100190.72;1092949;39;20396;-85
2023/05/30 03:36:24;;;;;;;6.82;2.90;;;;;;;15.72;53.50;100187.38;1087877;47;20014;-83
2023/05/30 03:37:25;;;;;;;6.45;2.70;;;;;;;15.82;53.16;100178.22;1087682;46;20026;-83
2023/05/30 03:38:29;;;;;;;6.13;3.50;;;;;;;15.81;53.49;100184.63;1087749;54;20040;-84
2023/05/30 03:39:30;;;;;;;5.88;3.15;;;;;;;15.82;53.26;100183.63;1087801;47;20342;-85
2023/05/30 03:40:34;;;;;;;6.05;3.30;;;;;;;15.79;53.33;100192.03;1087646;47;20034;-84
2023/05/30 03:41:35;;;;;;;7.55;3.38;;;;;;;15.68;53.82;100193.28;1087773;54;20070;-87
2023/05/30 03:42:39;;;;;;;5.50;2.75;;;;;;;15.71;53.61;100187.53;1087688;46;20037;-85
2023/05/30 03:43:40;;;;;;;5.10;2.90;;;;;;;15.75;53.59;100195.09;1087599;47;20095;-84
2023/05/30 03:44:44;;;;;;;6.22;3.08;;;;;;;15.77;53.35;100188.69;1087653;47;20041;-85
2023/05/30 03:45:45;;;;;;;9.60;3.80;;;;;;;15.74;53.20;100187.19;1087763;54;20026;-84
2023/05/30 03:46:48;;;;;;;7.25;3.40;;;;;;;15.71;53.43;100192.94;1087762;47;20030;-86
2023/05/30 03:47:54;;;;;;;6.03;3.05;;;;;;;15.79;53.25;100192.03;1087741;54;20035;-84
2023/05/30 06:04:15;;;;;;;6.35;2.65;;;;;;;16.46;47.68;100295.91;1087211;54;20010;-85
2023/05/30 06:05:32;;;;;;;5.97;2.65;;;;;;;16.40;47.71;100302.00;1087207;54;20030;-83
2023/05/30 06:06:59;;;;;;;7.95;3.00;;;;;;;16.46;47.66;100295.91;1087396;47;20038;-85
2023/05/30 06:21:10;;;;;;;7.15;2.67;;;;;;;16.77;46.22;100303.13;1088010;46;19939;-84
2023/05/30 06:22:37;;;;;;;7.10;2.40;;;;;;;16.79;46.42;100303.81;1089740;38;20311;-83
2023/05/30 06:23:43;;;;;;;5.50;2.47;;;;;;;16.72;46.59;100300.16;1088772;46;20026;-85
2023/05/30 06:24:48;;;;;;;5.68;2.70;;;;;;;16.65;46.65;100292.75;1088967;54;20046;-86
2023/05/30 06:25:52;;;;;;;8.57;3.72;;;;;;;16.57;46.86;100309.00;1089085;46;20022;-84
2023/05/30 06:50:01;;;;;;;6.90;2.35;;;;;;;16.35;46.59;100322.25;1089054;54;20030;-86
2023/05/30 06:54:32;;;;;;;7.70;3.30;;;;;;;16.33;46.61;100323.44;1088932;46;20026;-85
2023/05/30 06:55:51;;;;;;;5.68;2.72;;;;;;;16.53;46.28;100327.41;1088760;46;20042;-84
2023/05/30 06:56:52;;;;;;;9.13;2.83;;;;;;;16.54;45.98;100325.53;1089073;46;20022;-84
2023/05/30 06:58:32;;;;;;;11.23;3.40;;;;;;;16.51;46.04;100325.91;1088949;46;20022;-85
2023/05/30 06:59:34;;;;;;;7.10;2.72;;;;;;;16.81;45.58;100320.66;1098600;38;20418;-86
2023/05/30 07:10:39;;;;;;;8.48;3.28;;;;;;;16.77;45.10;100325.56;1088965;54;19995;-86
2023/05/30 07:11:40;;;;;;;5.75;2.40;;;;;;;17.06;44.82;100323.22;1088684;46;20026;-83
2023/05/30 07:12:44;;;;;;;6.80;2.47;;;;;;;17.17;44.66;100320.09;1088920;54;20042;-84
2023/05/30 07:13:45;;;;;;;7.43;2.70;;;;;;;17.15;44.64;100320.25;1088997;54;20056;-84
2023/05/30 07:14:49;;;;;;;5.85;2.33;;;;;;;17.17;44.54;100317.38;1088657;54;20053;-85
2023/05/30 07:15:53;;;;;;;9.20;2.92;;;;;;;17.17;44.75;100317.38;1088875;54;20030;-83
2023/05/30 07:16:57;;;;;;;7.10;2.78;;;;;;;17.20;44.32;100317.00;1089278;46;21110;-85
2023/05/30 07:17:58;;;;;;;10.57;3.00;;;;;;;17.23;44.48;100303.16;1089126;54;20053;-84
2023/05/30 07:19:02;;;;;;;8.55;3.67;;;;;;;17.25;44.65;100314.63;1088894;46;20026;-83
2023/05/30 07:20:05;;;;;;;8.93;3.10;;;;;;;17.28;44.57;100316.97;1089046;46;20022;-85
2023/05/30 07:21:10;;;;;;;8.70;3.60;;;;;;;17.34;44.04;100311.84;1089109;46;20057;-84
2023/05/30 07:22:13;;;;;;;5.32;2.63;;;;;;;17.50;43.98;100313.56;1089268;46;20037;-86
2023/05/30 07:23:17;;;;;;;9.38;3.20;;;;;;;17.38;44.24;100313.16;1089352;54;20053;-87
2023/05/30 07:24:19;;;;;;;8.02;3.25;;;;;;;17.40;44.13;100313.81;1088432;47;20038;-85
2023/05/30 07:25:22;;;;;;;7.22;3.03;;;;;;;17.47;43.98;100314.78;1087802;54;20034;-86
2023/05/30 07:26:29;;;;;;;6.65;2.60;;;;;;;17.49;43.96;100318.09;1087927;54;20079;-83
2023/05/30 07:27:30;;;;;;;7.07;2.72;;;;;;;17.58;43.73;100310.75;1087660;54;20034;-85
2023/05/30 07:28:34;;;;;;;7.28;2.63;;;;;;;17.73;43.67;100308.91;1087813;47;20056;-86
2023/05/30 07:29:35;;;;;;;8.40;2.92;;;;;;;17.87;43.08;100307.22;1087547;47;20022;-87
2023/05/30 07:30:39;;;;;;;9.27;2.85;;;;;;;18.00;43.18;100308.47;1087542;47;20026;-87
2023/05/30 07:31:41;;;;;;;8.70;2.95;;;;;;;18.19;42.74;100302.50;1087545;47;20047;-85
2023/05/30 07:32:44;;;;;;;9.07;2.65;;;;;;;18.15;42.85;100297.66;1087806;54;20046;-85
2023/05/30 07:33:48;;;;;;;5.68;2.63;;;;;;;18.15;42.73;100305.78;1087668;47;20034;-86
2023/05/30 07:34:50;;;;;;;11.18;2.60;;;;;;;18.33;42.32;100302.66;1087392;47;20054;-86
2023/05/30 07:35:53;;;;;;;9.82;2.92;;;;;;;18.22;42.54;100303.97;1087737;47;20030;-85
2023/05/30 07:36:55;;;;;;;6.40;2.85;;;;;;;18.34;41.93;100304.31;1087692;47;20011;-84
2023/05/30 07:37:59;;;;;;;6.18;2.55;;;;;;;18.26;42.18;100307.16;1087962;47;20046;-86
2023/05/30 07:39:02;;;;;;;7.72;2.60;;;;;;;18.42;41.71;100312.34;1087705;47;20026;-85
2023/05/30 07:40:05;;;;;;;6.15;2.83;;;;;;;18.43;41.93;100305.91;1087839;54;20035;-84
2023/05/30 07:41:09;;;;;;;8.50;3.15;;;;;;;18.56;41.88;100302.53;1087928;54;20071;-86
2023/05/30 07:42:16;;;;;;;6.88;2.78;;;;;;;18.60;41.43;100302.97;1088034;54;20034;-84
2023/05/30 07:43:20;;;;;;;7.22;3.00;;;;;;;18.50;41.65;100297.84;1087854;47;20030;-87
2023/05/30 07:44:21;;;;;;;6.30;2.60;;;;;;;18.46;41.62;100308.22;1087838;51;20057;-87
2023/05/30 07:45:25;;;;;;;6.50;2.65;;;;;;;18.47;41.75;100296.38;1087973;54;20071;-84
2023/05/30 07:46:26;;;;;;;6.93;2.53;;;;;;;18.35;41.40;100300.59;1087833;47;20050;-87
2023/05/30 07:47:30;;;;;;;6.68;2.88;;;;;;;18.33;41.59;100298.09;1087761;54;20019;-84
2023/05/30 07:48:34;;;;;;;7.35;3.17;;;;;;;18.54;41.35;100305.41;1088013;54;20026;-83
2023/05/30 07:49:35;;;;;;;6.90;2.85;;;;;;;18.62;41.40;100292.78;1088015;54;20042;-85
2023/05/30 07:50:39;;;;;;;7.07;3.17;;;;;;;18.74;41.09;100293.97;1088102;54;20034;-83
2023/05/30 07:51:40;;;;;;;8.32;2.88;;;;;;;18.99;40.68;100301.72;1087739;47;20038;-86
2023/05/30 07:52:44;;;;;;;7.07;2.58;;;;;;;18.94;40.81;100294.16;1088027;54;20019;-87
2023/05/30 07:53:48;;;;;;;9.05;3.50;;;;;;;18.89;40.91;100295.78;1088228;47;20023;-86
2023/05/30 07:54:49;;;;;;;7.57;3.10;;;;;;;18.92;40.83;100295.38;1087952;47;20046;-84
2023/05/30 07:55:53;;;;;;;6.40;2.97;;;;;;;18.97;40.71;100292.97;1087985;54;20066;-83
2023/05/30 07:56:54;;;;;;;11.48;2.95;;;;;;;19.00;40.56;100289.84;1088086;47;20028;-87
2023/05/30 07:58:00;;;;;;;6.15;2.45;;;;;;;19.02;40.34;100301.34;1087981;54;20035;-86
2023/05/30 07:59:02;;;;;;;6.15;2.17;;;;;;;19.04;40.31;100293.88;1088240;54;20042;-84
2023/05/30 08:00:08;;;;;;;9.77;2.78;;;;;;;19.04;40.51;100287.59;1087894;54;20045;-88
2023/05/30 08:01:15;;;;;;;7.07;2.70;;;;;;;19.09;40.42;100296.81;1088115;54;20023;-85
2023/05/30 08:02:16;;;;;;;8.98;2.45;;;;;;;19.11;40.20;100294.75;1088266;54;20043;-85
2023/05/30 08:03:20;;;;;;;5.68;2.45;;;;;;;19.22;40.09;100289.84;1088172;54;20041;-83
2023/05/30 08:04:22;;;;;;;7.93;2.53;;;;;;;19.24;40.20;100287.78;1095961;39;20359;-85
2023/05/30 08:05:28;;;;;;;5.30;2.15;;;;;;;19.58;39.76;100287.00;1087760;47;20030;-85
2023/05/30 08:06:29;;;;;;;7.10;2.80;;;;;;;19.65;39.81;100287.00;1088152;46;20051;-84